Lomita, California
Current Conditions -  °F | °C
As of 2:53 AM on Wednesday 22 Oct 2014 (Local Time) from KHHR Reporting Station
Few Clouds Few Clouds  
Wind Chill: 64°   Ceiling: Unl
Heat Index: 64°   Visibility: 10mi
Dew Point: 60°   Wind: 0mph
Humidity: 87%   Direction: NA
Pressure: 29.88"   Gusts: NA
Location:  33.81°N, 118.31°W
Report Text: KHHR 220953Z AUTO 00000KT 10SM FEW014 18/16 A2988 RMK AO2 SLP117 T01780156
Loading
Personal Weather Stations






























Interactive Weather Map
Tropical Storm Tracking
New forecast layout! Learn more

10-Day Weather Forecast

Advertisements
Track Severe Weather on mobile